sensor_id;sensor_type;location;lat;lon;timestamp;P1;durP1;ratioP1;P2;durP2;ratioP2
6374;SDS011;35400;45.472;-122.822;2022-08-18T00:02:27;1.00;;;1.00;;
6374;SDS011;35400;45.472;-122.822;2022-08-18T00:04:49;1.67;;;1.40;;
6374;SDS011;35400;45.472;-122.822;2022-08-18T00:07:20;1.50;;;1.40;;
6374;SDS011;35400;45.472;-122.822;2022-08-18T00:09:56;2.65;;;1.40;;
6374;SDS011;35400;45.472;-122.822;2022-08-18T00:12:36;1.95;;;1.70;;
6374;SDS011;35400;45.472;-122.822;2022-08-18T00:15:11;1.63;;;1.40;;
6374;SDS011;35400;45.472;-122.822;2022-08-18T00:17:40;2.88;;;1.50;;
6374;SDS011;35400;45.472;-122.822;2022-08-18T00:20:08;2.13;;;1.60;;
6374;SDS011;35400;45.472;-122.822;2022-08-18T00:22:37;4.13;;;1.60;;
6374;SDS011;35400;45.472;-122.822;2022-08-18T00:25:07;2.15;;;1.52;;
6374;SDS011;35400;45.472;-122.822;2022-08-18T00:27:35;3.75;;;1.50;;
6374;SDS011;35400;45.472;-122.822;2022-08-18T00:30:05;2.35;;;1.52;;
6374;SDS011;35400;45.472;-122.822;2022-08-18T00:32:35;2.17;;;1.40;;
6374;SDS011;35400;45.472;-122.822;2022-08-18T00:35:08;3.63;;;1.40;;
6374;SDS011;35400;45.472;-122.822;2022-08-18T00:37:38;1.52;;;1.40;;
6374;SDS011;35400;45.472;-122.822;2022-08-18T00:40:06;3.70;;;1.48;;
6374;SDS011;35400;45.472;-122.822;2022-08-18T00:42:43;3.45;;;1.52;;
6374;SDS011;35400;45.472;-122.822;2022-08-18T00:45:16;1.83;;;1.35;;
6374;SDS011;35400;45.472;-122.822;2022-08-18T00:47:46;1.60;;;1.50;;
6374;SDS011;35400;45.472;-122.822;2022-08-18T00:50:18;1.17;;;1.08;;
6374;SDS011;35400;45.472;-122.822;2022-08-18T00:52:56;2.05;;;1.35;;
6374;SDS011;35400;45.472;-122.822;2022-08-18T00:55:26;2.45;;;1.30;;
6374;SDS011;35400;45.472;-122.822;2022-08-18T00:57:56;2.20;;;1.60;;
6374;SDS011;35400;45.472;-122.822;2022-08-18T01:00:30;2.83;;;1.50;;
6374;SDS011;35400;45.472;-122.822;2022-08-18T01:02:58;1.92;;;1.25;;
6374;SDS011;35400;45.472;-122.822;2022-08-18T01:05:32;1.63;;;1.30;;
6374;SDS011;35400;45.472;-122.822;2022-08-18T01:08:07;3.10;;;1.40;;
6374;SDS011;35400;45.472;-122.822;2022-08-18T01:10:38;1.48;;;1.23;;
6374;SDS011;35400;45.472;-122.822;2022-08-18T01:13:06;2.05;;;1.38;;
6374;SDS011;35400;45.472;-122.822;2022-08-18T01:15:33;1.50;;;1.40;;
6374;SDS011;35400;45.472;-122.822;2022-08-18T01:18:03;2.30;;;1.35;;
6374;SDS011;35400;45.472;-122.822;2022-08-18T01:20:57;1.48;;;1.38;;
6374;SDS011;35400;45.472;-122.822;2022-08-18T01:24:03;2.78;;;1.40;;
6374;SDS011;35400;45.472;-122.822;2022-08-18T01:26:31;1.70;;;1.50;;
6374;SDS011;35400;45.472;-122.822;2022-08-18T01:29:06;1.45;;;1.23;;
6374;SDS011;35400;45.472;-122.822;2022-08-18T01:31:40;1.40;;;1.30;;
6374;SDS011;35400;45.472;-122.822;2022-08-18T01:34:11;2.40;;;1.30;;
6374;SDS011;35400;45.472;-122.822;2022-08-18T01:36:38;1.75;;;1.10;;
6374;SDS011;35400;45.472;-122.822;2022-08-18T01:39:07;3.85;;;1.27;;
6374;SDS011;35400;45.472;-122.822;2022-08-18T01:41:36;3.08;;;1.60;;
6374;SDS011;35400;45.472;-122.822;2022-08-18T01:44:04;3.35;;;1.90;;
6374;SDS011;35400;45.472;-122.822;2022-08-18T01:46:34;2.83;;;1.77;;
6374;SDS011;35400;45.472;-122.822;2022-08-18T01:49:00;1.80;;;1.70;;
6374;SDS011;35400;45.472;-122.822;2022-08-18T01:51:28;3.78;;;1.77;;
6374;SDS011;35400;45.472;-122.822;2022-08-18T01:53:56;2.03;;;1.77;;
6374;SDS011;35400;45.472;-122.822;2022-08-18T01:56:24;1.95;;;1.85;;
6374;SDS011;35400;45.472;-122.822;2022-08-18T01:58:54;1.75;;;1.65;;
6374;SDS011;35400;45.472;-122.822;2022-08-18T02:01:21;3.08;;;1.90;;
6374;SDS011;35400;45.472;-122.822;2022-08-18T02:03:53;1.92;;;1.83;;
6374;SDS011;35400;45.472;-122.822;2022-08-18T02:06:22;2.67;;;2.40;;
6374;SDS011;35400;45.472;-122.822;2022-08-18T02:08:48;2.10;;;2.00;;
6374;SDS011;35400;45.472;-122.822;2022-08-18T02:11:14;2.35;;;2.15;;
6374;SDS011;35400;45.472;-122.822;2022-08-18T02:13:41;2.45;;;2.28;;
6374;SDS011;35400;45.472;-122.822;2022-08-18T02:16:07;3.17;;;2.40;;
6374;SDS011;35400;45.472;-122.822;2022-08-18T02:18:34;2.75;;;2.30;;
6374;SDS011;35400;45.472;-122.822;2022-08-18T02:21:07;2.65;;;2.45;;
6374;SDS011;35400;45.472;-122.822;2022-08-18T02:23:36;2.67;;;2.47;;
6374;SDS011;35400;45.472;-122.822;2022-08-18T02:26:07;3.03;;;2.40;;
6374;SDS011;35400;45.472;-122.822;2022-08-18T02:28:39;3.10;;;2.78;;
6374;SDS011;35400;45.472;-122.822;2022-08-18T02:31:06;3.10;;;2.83;;
6374;SDS011;35400;45.472;-122.822;2022-08-18T02:33:38;2.28;;;2.13;;
6374;SDS011;35400;45.472;-122.822;2022-08-18T02:36:05;3.00;;;2.80;;
6374;SDS011;35400;45.472;-122.822;2022-08-18T02:38:32;3.30;;;3.00;;
6374;SDS011;35400;45.472;-122.822;2022-08-18T02:41:00;2.92;;;2.72;;
6374;SDS011;35400;45.472;-122.822;2022-08-18T02:43:30;3.40;;;2.35;;
6374;SDS011;35400;45.472;-122.822;2022-08-18T02:45:57;2.22;;;2.13;;
6374;SDS011;35400;45.472;-122.822;2022-08-18T02:48:23;2.35;;;2.20;;
6374;SDS011;35400;45.472;-122.822;2022-08-18T02:51:03;2.45;;;2.33;;
6374;SDS011;35400;45.472;-122.822;2022-08-18T02:53:30;3.47;;;2.20;;
6374;SDS011;35400;45.472;-122.822;2022-08-18T02:56:30;2.53;;;2.33;;
6374;SDS011;35400;45.472;-122.822;2022-08-18T02:58:51;2.33;;;2.08;;
6374;SDS011;35400;45.472;-122.822;2022-08-18T03:01:20;2.50;;;2.22;;
6374;SDS011;35400;45.472;-122.822;2022-08-18T03:03:48;2.22;;;2.13;;
6374;SDS011;35400;45.472;-122.822;2022-08-18T03:06:15;2.17;;;2.08;;
6374;SDS011;35400;45.472;-122.822;2022-08-18T03:08:43;3.88;;;2.28;;
6374;SDS011;35400;45.472;-122.822;2022-08-18T03:11:23;3.25;;;2.60;;
6374;SDS011;35400;45.472;-122.822;2022-08-18T03:13:51;3.42;;;2.83;;
6374;SDS011;35400;45.472;-122.822;2022-08-18T03:16:19;3.28;;;2.20;;
6374;SDS011;35400;45.472;-122.822;2022-08-18T03:18:46;2.47;;;2.20;;
6374;SDS011;35400;45.472;-122.822;2022-08-18T03:21:14;2.85;;;1.90;;
6374;SDS011;35400;45.472;-122.822;2022-08-18T03:23:45;4.80;;;2.28;;
6374;SDS011;35400;45.472;-122.822;2022-08-18T03:26:13;2.80;;;2.60;;
6374;SDS011;35400;45.472;-122.822;2022-08-18T03:28:41;3.38;;;2.30;;
6374;SDS011;35400;45.472;-122.822;2022-08-18T03:31:09;2.55;;;2.35;;
6374;SDS011;35400;45.472;-122.822;2022-08-18T03:33:38;1.88;;;1.77;;
6374;SDS011;35400;45.472;-122.822;2022-08-18T03:36:14;2.42;;;2.22;;
6374;SDS011;35400;45.472;-122.822;2022-08-18T03:38:43;2.17;;;1.85;;
6374;SDS011;35400;45.472;-122.822;2022-08-18T03:41:11;2.30;;;2.10;;
6374;SDS011;35400;45.472;-122.822;2022-08-18T03:43:39;3.40;;;1.90;;
6374;SDS011;35400;45.472;-122.822;2022-08-18T03:46:07;3.38;;;2.40;;
6374;SDS011;35400;45.472;-122.822;2022-08-18T03:48:35;2.40;;;2.28;;
6374;SDS011;35400;45.472;-122.822;2022-08-18T03:51:27;3.78;;;2.25;;
6374;SDS011;35400;45.472;-122.822;2022-08-18T03:53:54;2.70;;;2.50;;
6374;SDS011;35400;45.472;-122.822;2022-08-18T03:56:26;3.10;;;2.40;;
6374;SDS011;35400;45.472;-122.822;2022-08-18T03:58:59;2.65;;;2.45;;
6374;SDS011;35400;45.472;-122.822;2022-08-18T04:01:29;3.70;;;1.92;;
6374;SDS011;35400;45.472;-122.822;2022-08-18T04:03:59;1.95;;;1.85;;
6374;SDS011;35400;45.472;-122.822;2022-08-18T04:06:46;2.45;;;1.80;;
6374;SDS011;35400;45.472;-122.822;2022-08-18T04:09:15;4.15;;;2.13;;
6374;SDS011;35400;45.472;-122.822;2022-08-18T04:11:43;1.98;;;1.88;;
6374;SDS011;35400;45.472;-122.822;2022-08-18T04:14:11;2.20;;;2.05;;
6374;SDS011;35400;45.472;-122.822;2022-08-18T04:16:42;1.65;;;1.55;;
6374;SDS011;35400;45.472;-122.822;2022-08-18T04:19:09;2.47;;;2.28;;
6374;SDS011;35400;45.472;-122.822;2022-08-18T04:21:38;2.97;;;2.25;;
6374;SDS011;35400;45.472;-122.822;2022-08-18T04:24:06;2.42;;;2.22;;
6374;SDS011;35400;45.472;-122.822;2022-08-18T04:26:36;2.75;;;1.98;;
6374;SDS011;35400;45.472;-122.822;2022-08-18T04:29:05;2.95;;;2.17;;
6374;SDS011;35400;45.472;-122.822;2022-08-18T04:31:32;2.83;;;2.08;;
6374;SDS011;35400;45.472;-122.822;2022-08-18T04:34:00;2.45;;;2.22;;
6374;SDS011;35400;45.472;-122.822;2022-08-18T04:36:28;2.83;;;2.47;;
6374;SDS011;35400;45.472;-122.822;2022-08-18T04:38:56;2.72;;;2.53;;
6374;SDS011;35400;45.472;-122.822;2022-08-18T04:41:23;4.20;;;2.22;;
6374;SDS011;35400;45.472;-122.822;2022-08-18T04:43:55;2.58;;;2.38;;
6374;SDS011;35400;45.472;-122.822;2022-08-18T04:46:23;2.30;;;2.05;;
6374;SDS011;35400;45.472;-122.822;2022-08-18T04:48:51;3.33;;;2.33;;
6374;SDS011;35400;45.472;-122.822;2022-08-18T04:51:23;4.93;;;2.33;;
6374;SDS011;35400;45.472;-122.822;2022-08-18T04:53:52;2.28;;;1.95;;
6374;SDS011;35400;45.472;-122.822;2022-08-18T04:58:55;3.67;;;2.38;;
6374;SDS011;35400;45.472;-122.822;2022-08-18T05:01:24;3.17;;;2.42;;
6374;SDS011;35400;45.472;-122.822;2022-08-18T05:03:54;2.70;;;2.47;;
6374;SDS011;35400;45.472;-122.822;2022-08-18T05:06:22;2.78;;;2.30;;
6374;SDS011;35400;45.472;-122.822;2022-08-18T05:08:51;3.45;;;2.30;;
6374;SDS011;35400;45.472;-122.822;2022-08-18T05:11:19;2.75;;;2.30;;
6374;SDS011;35400;45.472;-122.822;2022-08-18T05:13:47;2.65;;;2.30;;
6374;SDS011;35400;45.472;-122.822;2022-08-18T05:16:14;3.70;;;2.30;;
6374;SDS011;35400;45.472;-122.822;2022-08-18T05:18:41;4.93;;;3.05;;
6374;SDS011;35400;45.472;-122.822;2022-08-18T05:21:07;3.25;;;2.90;;
6374;SDS011;35400;45.472;-122.822;2022-08-18T05:23:38;3.00;;;2.80;;
6374;SDS011;35400;45.472;-122.822;2022-08-18T05:26:08;4.28;;;3.60;;
6374;SDS011;35400;45.472;-122.822;2022-08-18T05:28:38;5.68;;;3.53;;
6374;SDS011;35400;45.472;-122.822;2022-08-18T05:31:08;4.10;;;3.63;;
6374;SDS011;35400;45.472;-122.822;2022-08-18T05:33:36;3.63;;;3.17;;
6374;SDS011;35400;45.472;-122.822;2022-08-18T05:36:34;3.38;;;3.08;;
6374;SDS011;35400;45.472;-122.822;2022-08-18T05:39:23;4.43;;;2.90;;
6374;SDS011;35400;45.472;-122.822;2022-08-18T05:44:31;3.17;;;2.88;;
6374;SDS011;35400;45.472;-122.822;2022-08-18T05:49:52;3.33;;;2.60;;
6374;SDS011;35400;45.472;-122.822;2022-08-18T05:52:44;4.05;;;2.45;;
6374;SDS011;35400;45.472;-122.822;2022-08-18T05:55:28;2.50;;;2.40;;
6374;SDS011;35400;45.472;-122.822;2022-08-18T05:58:17;2.90;;;2.70;;
6374;SDS011;35400;45.472;-122.822;2022-08-18T06:00:57;3.03;;;2.42;;
6374;SDS011;35400;45.472;-122.822;2022-08-18T06:03:36;3.60;;;2.45;;
6374;SDS011;35400;45.472;-122.822;2022-08-18T06:06:12;2.53;;;2.33;;
6374;SDS011;35400;45.472;-122.822;2022-08-18T06:08:43;2.50;;;2.30;;
6374;SDS011;35400;45.472;-122.822;2022-08-18T06:11:16;2.95;;;2.30;;
6374;SDS011;35400;45.472;-122.822;2022-08-18T06:13:42;3.78;;;2.63;;
6374;SDS011;35400;45.472;-122.822;2022-08-18T06:16:18;2.75;;;2.55;;
6374;SDS011;35400;45.472;-122.822;2022-08-18T06:19:19;2.45;;;2.10;;
6374;SDS011;35400;45.472;-122.822;2022-08-18T06:27:27;3.50;;;2.60;;
6374;SDS011;35400;45.472;-122.822;2022-08-18T06:30:08;2.72;;;2.33;;
6374;SDS011;35400;45.472;-122.822;2022-08-18T06:33:12;4.03;;;2.95;;
6374;SDS011;35400;45.472;-122.822;2022-08-18T06:36:24;3.58;;;2.80;;
6374;SDS011;35400;45.472;-122.822;2022-08-18T06:41:43;4.75;;;2.95;;
6374;SDS011;35400;45.472;-122.822;2022-08-18T06:50:13;2.40;;;2.20;;
6374;SDS011;35400;45.472;-122.822;2022-08-18T06:52:31;2.72;;;2.53;;
6374;SDS011;35400;45.472;-122.822;2022-08-18T06:55:07;2.97;;;2.78;;
6374;SDS011;35400;45.472;-122.822;2022-08-18T06:58:02;2.58;;;2.38;;
6374;SDS011;35400;45.472;-122.822;2022-08-18T07:03:19;2.83;;;2.60;;
6374;SDS011;35400;45.472;-122.822;2022-08-18T07:08:52;2.83;;;2.60;;
6374;SDS011;35400;45.472;-122.822;2022-08-18T07:11:31;2.97;;;2.63;;
6374;SDS011;35400;45.472;-122.822;2022-08-18T07:16:46;2.92;;;2.72;;
6374;SDS011;35400;45.472;-122.822;2022-08-18T07:19:14;3.58;;;2.42;;
6374;SDS011;35400;45.472;-122.822;2022-08-18T07:21:46;5.38;;;2.50;;
6374;SDS011;35400;45.472;-122.822;2022-08-18T07:24:29;2.47;;;2.28;;
6374;SDS011;35400;45.472;-122.822;2022-08-18T07:29:40;3.50;;;2.60;;
6374;SDS011;35400;45.472;-122.822;2022-08-18T07:32:25;2.90;;;2.60;;
6374;SDS011;35400;45.472;-122.822;2022-08-18T07:34:58;3.15;;;2.78;;
6374;SDS011;35400;45.472;-122.822;2022-08-18T07:37:31;3.03;;;2.72;;
6374;SDS011;35400;45.472;-122.822;2022-08-18T07:40:12;2.28;;;2.08;;
6374;SDS011;35400;45.472;-122.822;2022-08-18T07:48:14;2.50;;;2.30;;
6374;SDS011;35400;45.472;-122.822;2022-08-18T07:50:44;2.70;;;2.47;;
6374;SDS011;35400;45.472;-122.822;2022-08-18T07:53:28;3.20;;;2.55;;
6374;SDS011;35400;45.472;-122.822;2022-08-18T07:56:02;3.58;;;2.53;;
6374;SDS011;35400;45.472;-122.822;2022-08-18T07:58:56;2.42;;;2.22;;
6374;SDS011;35400;45.472;-122.822;2022-08-18T08:04:38;2.38;;;2.17;;
6374;SDS011;35400;45.472;-122.822;2022-08-18T08:07:20;3.10;;;2.47;;
6374;SDS011;35400;45.472;-122.822;2022-08-18T08:12:36;4.55;;;3.00;;
6374;SDS011;35400;45.472;-122.822;2022-08-18T08:21:00;3.50;;;2.67;;
6374;SDS011;35400;45.472;-122.822;2022-08-18T08:23:40;4.22;;;2.78;;
6374;SDS011;35400;45.472;-122.822;2022-08-18T08:37:22;2.65;;;2.30;;
6374;SDS011;35400;45.472;-122.822;2022-08-18T08:40:02;2.75;;;2.25;;
6374;SDS011;35400;45.472;-122.822;2022-08-18T08:42:41;2.72;;;2.50;;
6374;SDS011;35400;45.472;-122.822;2022-08-18T08:45:17;3.15;;;2.10;;
6374;SDS011;35400;45.472;-122.822;2022-08-18T08:48:14;2.55;;;2.35;;
6374;SDS011;35400;45.472;-122.822;2022-08-18T08:53:31;2.95;;;2.42;;
6374;SDS011;35400;45.472;-122.822;2022-08-18T08:56:05;2.63;;;2.33;;
6374;SDS011;35400;45.472;-122.822;2022-08-18T08:58:39;3.17;;;2.78;;
6374;SDS011;35400;45.472;-122.822;2022-08-18T09:01:21;4.18;;;2.60;;
6374;SDS011;35400;45.472;-122.822;2022-08-18T09:04:19;4.80;;;2.67;;
6374;SDS011;35400;45.472;-122.822;2022-08-18T09:20:52;2.15;;;2.03;;
6374;SDS011;35400;45.472;-122.822;2022-08-18T09:23:47;2.60;;;2.33;;
6374;SDS011;35400;45.472;-122.822;2022-08-18T09:26:24;2.85;;;2.47;;
6374;SDS011;35400;45.472;-122.822;2022-08-18T09:29:24;3.88;;;2.58;;
6374;SDS011;35400;45.472;-122.822;2022-08-18T09:37:43;2.88;;;2.58;;
6374;SDS011;35400;45.472;-122.822;2022-08-18T09:40:44;6.22;;;3.10;;
6374;SDS011;35400;45.472;-122.822;2022-08-18T09:43:36;3.75;;;2.75;;
6374;SDS011;35400;45.472;-122.822;2022-08-18T09:51:51;4.60;;;2.58;;
6374;SDS011;35400;45.472;-122.822;2022-08-18T09:54:19;3.03;;;2.80;;
6374;SDS011;35400;45.472;-122.822;2022-08-18T10:02:05;4.00;;;2.75;;
6374;SDS011;35400;45.472;-122.822;2022-08-18T10:04:35;4.05;;;3.08;;
6374;SDS011;35400;45.472;-122.822;2022-08-18T10:10:08;2.88;;;2.22;;
6374;SDS011;35400;45.472;-122.822;2022-08-18T10:12:49;2.78;;;2.58;;
6374;SDS011;35400;45.472;-122.822;2022-08-18T10:15:44;4.35;;;2.58;;
6374;SDS011;35400;45.472;-122.822;2022-08-18T10:29:05;4.35;;;2.60;;
6374;SDS011;35400;45.472;-122.822;2022-08-18T10:34:41;3.42;;;2.88;;
6374;SDS011;35400;45.472;-122.822;2022-08-18T10:39:54;3.30;;;3.00;;
6374;SDS011;35400;45.472;-122.822;2022-08-18T10:42:37;4.32;;;2.60;;
6374;SDS011;35400;45.472;-122.822;2022-08-18T10:50:56;2.88;;;2.67;;
6374;SDS011;35400;45.472;-122.822;2022-08-18T10:53:38;2.45;;;2.25;;
6374;SDS011;35400;45.472;-122.822;2022-08-18T11:04:46;2.83;;;2.63;;
6374;SDS011;35400;45.472;-122.822;2022-08-18T11:09:47;3.28;;;2.97;;
6374;SDS011;35400;45.472;-122.822;2022-08-18T11:26:53;3.28;;;2.50;;
6374;SDS011;35400;45.472;-122.822;2022-08-18T11:29:39;2.78;;;2.40;;
6374;SDS011;35400;45.472;-122.822;2022-08-18T11:34:43;3.28;;;2.72;;
6374;SDS011;35400;45.472;-122.822;2022-08-18T11:37:22;2.72;;;2.53;;
6374;SDS011;35400;45.472;-122.822;2022-08-18T11:39:53;3.28;;;2.97;;
6374;SDS011;35400;45.472;-122.822;2022-08-18T11:42:29;3.00;;;2.53;;
6374;SDS011;35400;45.472;-122.822;2022-08-18T11:45:15;2.85;;;2.42;;
6374;SDS011;35400;45.472;-122.822;2022-08-18T11:53:24;3.67;;;2.85;;
6374;SDS011;35400;45.472;-122.822;2022-08-18T11:58:40;5.07;;;2.80;;
6374;SDS011;35400;45.472;-122.822;2022-08-18T12:01:37;2.75;;;2.50;;
6374;SDS011;35400;45.472;-122.822;2022-08-18T12:04:08;3.80;;;3.30;;
6374;SDS011;35400;45.472;-122.822;2022-08-18T12:06:35;3.88;;;2.88;;
6374;SDS011;35400;45.472;-122.822;2022-08-18T12:11:47;3.13;;;2.90;;
6374;SDS011;35400;45.472;-122.822;2022-08-18T12:14:18;3.45;;;3.15;;
6374;SDS011;35400;45.472;-122.822;2022-08-18T12:16:46;3.95;;;2.90;;
6374;SDS011;35400;45.472;-122.822;2022-08-18T12:19:14;4.03;;;3.45;;
6374;SDS011;35400;45.472;-122.822;2022-08-18T12:21:59;3.28;;;2.97;;
6374;SDS011;35400;45.472;-122.822;2022-08-18T12:24:27;3.55;;;3.25;;
6374;SDS011;35400;45.472;-122.822;2022-08-18T12:26:55;3.38;;;3.08;;
6374;SDS011;35400;45.472;-122.822;2022-08-18T12:29:22;3.67;;;2.85;;
6374;SDS011;35400;45.472;-122.822;2022-08-18T12:31:51;4.88;;;2.92;;
6374;SDS011;35400;45.472;-122.822;2022-08-18T12:34:19;3.88;;;3.30;;
6374;SDS011;35400;45.472;-122.822;2022-08-18T12:36:58;3.33;;;3.00;;
6374;SDS011;35400;45.472;-122.822;2022-08-18T12:39:30;3.28;;;2.95;;
6374;SDS011;35400;45.472;-122.822;2022-08-18T12:41:57;2.90;;;2.70;;
6374;SDS011;35400;45.472;-122.822;2022-08-18T12:44:24;4.72;;;2.83;;
6374;SDS011;35400;45.472;-122.822;2022-08-18T12:46:50;3.05;;;2.75;;
6374;SDS011;35400;45.472;-122.822;2022-08-18T12:49:18;3.83;;;2.83;;
6374;SDS011;35400;45.472;-122.822;2022-08-18T12:51:46;2.85;;;2.65;;
6374;SDS011;35400;45.472;-122.822;2022-08-18T12:54:13;2.80;;;2.60;;
6374;SDS011;35400;45.472;-122.822;2022-08-18T12:56:40;3.78;;;3.15;;
6374;SDS011;35400;45.472;-122.822;2022-08-18T12:59:07;3.95;;;2.78;;
6374;SDS011;35400;45.472;-122.822;2022-08-18T13:01:35;4.10;;;2.95;;
6374;SDS011;35400;45.472;-122.822;2022-08-18T13:04:03;2.97;;;2.70;;
6374;SDS011;35400;45.472;-122.822;2022-08-18T13:06:33;4.85;;;3.05;;
6374;SDS011;35400;45.472;-122.822;2022-08-18T13:09:03;3.58;;;3.28;;
6374;SDS011;35400;45.472;-122.822;2022-08-18T13:11:29;2.70;;;2.50;;
6374;SDS011;35400;45.472;-122.822;2022-08-18T13:13:56;3.60;;;2.80;;
6374;SDS011;35400;45.472;-122.822;2022-08-18T13:16:23;2.88;;;2.67;;
6374;SDS011;35400;45.472;-122.822;2022-08-18T13:19:00;3.50;;;2.53;;
6374;SDS011;35400;45.472;-122.822;2022-08-18T13:21:26;3.42;;;2.60;;
6374;SDS011;35400;45.472;-122.822;2022-08-18T13:23:53;6.80;;;2.88;;
6374;SDS011;35400;45.472;-122.822;2022-08-18T13:26:27;3.13;;;2.78;;
6374;SDS011;35400;45.472;-122.822;2022-08-18T13:28:55;3.38;;;3.08;;
6374;SDS011;35400;45.472;-122.822;2022-08-18T13:31:22;8.00;;;3.22;;
6374;SDS011;35400;45.472;-122.822;2022-08-18T13:33:51;4.47;;;3.17;;
6374;SDS011;35400;45.472;-122.822;2022-08-18T13:36:18;4.80;;;3.40;;
6374;SDS011;35400;45.472;-122.822;2022-08-18T13:38:45;3.33;;;3.03;;
6374;SDS011;35400;45.472;-122.822;2022-08-18T13:41:11;3.88;;;3.20;;
6374;SDS011;35400;45.472;-122.822;2022-08-18T13:43:39;3.83;;;2.90;;
6374;SDS011;35400;45.472;-122.822;2022-08-18T13:46:11;3.72;;;2.83;;
6374;SDS011;35400;45.472;-122.822;2022-08-18T13:48:39;3.75;;;3.38;;
6374;SDS011;35400;45.472;-122.822;2022-08-18T13:51:07;2.70;;;2.50;;
6374;SDS011;35400;45.472;-122.822;2022-08-18T13:53:36;4.47;;;3.10;;
6374;SDS011;35400;45.472;-122.822;2022-08-18T13:56:04;3.97;;;2.72;;
6374;SDS011;35400;45.472;-122.822;2022-08-18T13:58:31;3.78;;;3.10;;
6374;SDS011;35400;45.472;-122.822;2022-08-18T14:00:59;3.70;;;2.83;;
6374;SDS011;35400;45.472;-122.822;2022-08-18T14:03:27;5.38;;;3.20;;
6374;SDS011;35400;45.472;-122.822;2022-08-18T14:05:55;3.42;;;3.00;;
6374;SDS011;35400;45.472;-122.822;2022-08-18T14:08:23;3.85;;;3.10;;
6374;SDS011;35400;45.472;-122.822;2022-08-18T14:10:51;3.97;;;2.95;;
6374;SDS011;35400;45.472;-122.822;2022-08-18T14:13:20;4.32;;;3.03;;
6374;SDS011;35400;45.472;-122.822;2022-08-18T14:15:49;3.30;;;3.08;;
6374;SDS011;35400;45.472;-122.822;2022-08-18T14:18:18;3.17;;;2.88;;
6374;SDS011;35400;45.472;-122.822;2022-08-18T14:20:44;3.20;;;2.90;;
6374;SDS011;35400;45.472;-122.822;2022-08-18T14:23:29;3.75;;;2.80;;
6374;SDS011;35400;45.472;-122.822;2022-08-18T14:26:13;3.10;;;2.80;;
6374;SDS011;35400;45.472;-122.822;2022-08-18T14:28:58;3.50;;;2.60;;
6374;SDS011;35400;45.472;-122.822;2022-08-18T14:31:24;4.72;;;3.17;;
6374;SDS011;35400;45.472;-122.822;2022-08-18T14:33:51;3.50;;;2.90;;
6374;SDS011;35400;45.472;-122.822;2022-08-18T14:36:17;3.20;;;2.90;;
6374;SDS011;35400;45.472;-122.822;2022-08-18T14:38:45;4.63;;;3.10;;
6374;SDS011;35400;45.472;-122.822;2022-08-18T14:41:12;3.80;;;3.50;;
6374;SDS011;35400;45.472;-122.822;2022-08-18T14:43:39;3.78;;;3.15;;
6374;SDS011;35400;45.472;-122.822;2022-08-18T14:46:09;3.03;;;2.72;;
6374;SDS011;35400;45.472;-122.822;2022-08-18T14:48:38;3.80;;;3.45;;
6374;SDS011;35400;45.472;-122.822;2022-08-18T14:51:05;3.05;;;2.83;;
6374;SDS011;35400;45.472;-122.822;2022-08-18T14:53:34;4.80;;;3.22;;
6374;SDS011;35400;45.472;-122.822;2022-08-18T14:56:01;3.47;;;3.20;;
6374;SDS011;35400;45.472;-122.822;2022-08-18T14:58:30;4.45;;;3.10;;
6374;SDS011;35400;45.472;-122.822;2022-08-18T15:00:58;6.07;;;3.70;;
6374;SDS011;35400;45.472;-122.822;2022-08-18T15:03:28;3.65;;;2.88;;
6374;SDS011;35400;45.472;-122.822;2022-08-18T15:05:55;5.30;;;3.05;;
6374;SDS011;35400;45.472;-122.822;2022-08-18T15:08:23;3.58;;;2.85;;
6374;SDS011;35400;45.472;-122.822;2022-08-18T15:10:49;5.25;;;3.15;;
6374;SDS011;35400;45.472;-122.822;2022-08-18T15:13:16;5.85;;;3.60;;
6374;SDS011;35400;45.472;-122.822;2022-08-18T15:15:42;6.03;;;3.38;;
6374;SDS011;35400;45.472;-122.822;2022-08-18T15:18:09;4.70;;;3.45;;
6374;SDS011;35400;45.472;-122.822;2022-08-18T15:20:36;5.88;;;3.30;;
6374;SDS011;35400;45.472;-122.822;2022-08-18T15:23:22;4.20;;;3.55;;
6374;SDS011;35400;45.472;-122.822;2022-08-18T15:26:07;6.55;;;3.75;;
6374;SDS011;35400;45.472;-122.822;2022-08-18T15:28:35;4.05;;;3.45;;
6374;SDS011;35400;45.472;-122.822;2022-08-18T15:31:02;4.65;;;3.10;;
6374;SDS011;35400;45.472;-122.822;2022-08-18T15:33:29;7.55;;;3.70;;
6374;SDS011;35400;45.472;-122.822;2022-08-18T15:35:56;5.50;;;3.80;;
6374;SDS011;35400;45.472;-122.822;2022-08-18T15:38:25;5.72;;;3.40;;
6374;SDS011;35400;45.472;-122.822;2022-08-18T15:40:55;6.38;;;3.75;;
6374;SDS011;35400;45.472;-122.822;2022-08-18T15:43:24;4.82;;;4.03;;
6374;SDS011;35400;45.472;-122.822;2022-08-18T15:45:51;5.50;;;3.55;;
6374;SDS011;35400;45.472;-122.822;2022-08-18T15:48:19;5.50;;;3.45;;
6374;SDS011;35400;45.472;-122.822;2022-08-18T15:50:46;5.50;;;3.70;;
6374;SDS011;35400;45.472;-122.822;2022-08-18T15:53:15;5.70;;;4.10;;
6374;SDS011;35400;45.472;-122.822;2022-08-18T15:55:43;3.92;;;3.35;;
6374;SDS011;35400;45.472;-122.822;2022-08-18T15:58:11;3.05;;;2.78;;
6374;SDS011;35400;45.472;-122.822;2022-08-18T16:00:42;5.60;;;3.35;;
6374;SDS011;35400;45.472;-122.822;2022-08-18T16:03:10;5.22;;;3.63;;
6374;SDS011;35400;45.472;-122.822;2022-08-18T16:05:40;4.20;;;3.15;;
6374;SDS011;35400;45.472;-122.822;2022-08-18T16:08:18;5.78;;;3.50;;
6374;SDS011;35400;45.472;-122.822;2022-08-18T16:10:45;6.20;;;3.33;;
6374;SDS011;35400;45.472;-122.822;2022-08-18T16:13:12;7.30;;;3.80;;
6374;SDS011;35400;45.472;-122.822;2022-08-18T16:15:41;5.70;;;3.38;;
6374;SDS011;35400;45.472;-122.822;2022-08-18T16:18:11;5.57;;;3.47;;
6374;SDS011;35400;45.472;-122.822;2022-08-18T16:20:38;6.60;;;3.53;;
6374;SDS011;35400;45.472;-122.822;2022-08-18T16:23:05;3.75;;;3.35;;
6374;SDS011;35400;45.472;-122.822;2022-08-18T16:25:33;4.25;;;3.53;;
6374;SDS011;35400;45.472;-122.822;2022-08-18T16:28:02;6.85;;;3.55;;
6374;SDS011;35400;45.472;-122.822;2022-08-18T16:30:29;5.95;;;3.53;;
6374;SDS011;35400;45.472;-122.822;2022-08-18T16:33:01;6.45;;;3.60;;
6374;SDS011;35400;45.472;-122.822;2022-08-18T16:35:29;5.72;;;3.28;;
6374;SDS011;35400;45.472;-122.822;2022-08-18T16:38:00;7.05;;;3.20;;
6374;SDS011;35400;45.472;-122.822;2022-08-18T16:40:36;4.55;;;3.33;;
6374;SDS011;35400;45.472;-122.822;2022-08-18T16:43:02;7.78;;;3.42;;
6374;SDS011;35400;45.472;-122.822;2022-08-18T16:45:30;4.10;;;2.88;;
6374;SDS011;35400;45.472;-122.822;2022-08-18T16:47:58;5.95;;;3.28;;
6374;SDS011;35400;45.472;-122.822;2022-08-18T16:50:25;4.95;;;3.28;;
6374;SDS011;35400;45.472;-122.822;2022-08-18T16:52:52;6.68;;;3.78;;
6374;SDS011;35400;45.472;-122.822;2022-08-18T16:55:18;3.55;;;3.15;;
6374;SDS011;35400;45.472;-122.822;2022-08-18T16:57:45;9.95;;;3.63;;
6374;SDS011;35400;45.472;-122.822;2022-08-18T17:00:30;6.22;;;3.58;;
6374;SDS011;35400;45.472;-122.822;2022-08-18T17:03:16;9.48;;;3.60;;
6374;SDS011;35400;45.472;-122.822;2022-08-18T17:06:02;7.22;;;3.60;;
6374;SDS011;35400;45.472;-122.822;2022-08-18T17:08:30;9.65;;;3.60;;
6374;SDS011;35400;45.472;-122.822;2022-08-18T17:11:02;5.15;;;3.72;;
6374;SDS011;35400;45.472;-122.822;2022-08-18T17:13:30;7.70;;;3.20;;
6374;SDS011;35400;45.472;-122.822;2022-08-18T17:15:58;5.60;;;3.60;;
6374;SDS011;35400;45.472;-122.822;2022-08-18T17:18:24;8.50;;;3.75;;
6374;SDS011;35400;45.472;-122.822;2022-08-18T17:20:51;6.38;;;3.42;;
6374;SDS011;35400;45.472;-122.822;2022-08-18T17:23:18;6.10;;;3.38;;
6374;SDS011;35400;45.472;-122.822;2022-08-18T17:25:45;6.18;;;3.65;;
6374;SDS011;35400;45.472;-122.822;2022-08-18T17:28:20;4.00;;;3.25;;
6374;SDS011;35400;45.472;-122.822;2022-08-18T17:30:51;4.63;;;3.55;;